This is the latest recevied weather packets stored in our database for station/object EI8EPB-1. If no packets are shown the sender has not sent any weather packets the latest 1 day(s).
| Time | Temp. | Humidity | Pressure | Rain* | Wind** | Luminosity | Snow |
|---|---|---|---|---|---|---|---|
| 1777994403 | 12.78° C | 73% | 1014.8 hPa | 0 mm | 0.45 m/s, 356° | - | - |
| 1777994103 | 13.33° C | 73% | 1014.8 hPa | 0 mm | 0.45 m/s, 357° | - | - |
| 1777993803 | 13.33° C | 72% | 1014.8 hPa | 0 mm | 0.45 m/s, 302° | - | - |
| 1777993503 | 13.89° C | 73% | 1014.8 hPa | 0 mm | 0.89 m/s, 211° | - | - |
| 1777993203 | 14.44° C | 72% | 1014.7 hPa | 0 mm | 0.45 m/s, 195° | - | - |
| 1777992903 | 14.44° C | 73% | 1014.7 hPa | 0 mm | 0.45 m/s, 220° | - | - |
| 1777992603 | 14.44° C | 74% | 1014.7 hPa | 0 mm | 0.45 m/s, 229° | - | - |
| 1777992303 | 13.89° C | 74% | 1014.7 hPa | 0 mm | 0.45 m/s, 209° | - | - |
| 1777992003 | 13.89° C | 74% | 1014.8 hPa | 0 mm | 0.45 m/s, 195° | - | - |
| 1777991703 | 13.33° C | 76% | 1014.8 hPa | 0 mm | 0.45 m/s, 193° | - | - |
| 1777991403 | 12.78° C | 77% | 1014.8 hPa | 0 mm | 0.45 m/s, 220° | - | - |
| 1777991103 | 12.78° C | 78% | 1014.8 hPa | 0 mm | 0.45 m/s, 265° | - | - |
| 1777990803 | 12.78° C | 78% | 1014.9 hPa | 0 mm | 0.89 m/s, 279° | - | - |
| 1777990503 | 12.78° C | 79% | 1014.9 hPa | 0 mm | 0.45 m/s, 271° | - | - |
| 1777990203 | 12.22° C | 81% | 1014.9 hPa | 0 mm | 0.45 m/s, 255° | - | - |
| 1777989903 | 12.22° C | 81% | 1015 hPa | 0 mm | 0.45 m/s, 278° | - | - |
| 1777989603 | 12.22° C | 80% | 1015.1 hPa | 0 mm | 0.89 m/s, 274° | - | - |
| 1777989303 | 12.22° C | 79% | 1015.1 hPa | 0 mm | 0.89 m/s, 274° | - | - |
| 1777989003 | 12.22° C | 78% | 1015.1 hPa | 0 mm | 0.45 m/s, 279° | - | - |
| 1777988703 | 12.78° C | 75% | 1015.1 hPa | 0 mm | 0.45 m/s, 269° | - | - |
| 1777988403 | 12.78° C | 74% | 1015.1 hPa | 0 mm | 0.45 m/s, 330° | - | - |
| 1777988103 | 13.33° C | 73% | 1015.1 hPa | 0 mm | 0.45 m/s, 332° | - | - |
| 1777987803 | 13.33° C | 72% | 1015.1 hPa | 0 mm | 0 m/s | - | - |
| 1777987503 | 13.33° C | 71% | 1015.1 hPa | 0 mm | 0 m/s | - | - |
| 1777987203 | 13.89° C | 71% | 1015.1 hPa | 0 mm | 0.45 m/s, 318° | - | - |
* Rain latest hour (hover to see other rain measurements)
** Current wind speed in m/s (hover to see current wind gust speed)